sensor_id;sensor_type;location;lat;lon;timestamp;temperature;humidity
13585;DHT22;6863;48.402;9.994;2023-03-31T00:02:01;7.20;99.90
13585;DHT22;6863;48.402;9.994;2023-03-31T00:04:32;7.10;99.90
13585;DHT22;6863;48.402;9.994;2023-03-31T00:06:57;7.00;99.90
13585;DHT22;6863;48.402;9.994;2023-03-31T00:09:23;7.00;99.90
13585;DHT22;6863;48.402;9.994;2023-03-31T00:11:50;6.90;99.90
13585;DHT22;6863;48.402;9.994;2023-03-31T00:14:17;7.00;99.90
13585;DHT22;6863;48.402;9.994;2023-03-31T00:16:43;7.00;99.90
13585;DHT22;6863;48.402;9.994;2023-03-31T00:19:10;7.00;99.90
13585;DHT22;6863;48.402;9.994;2023-03-31T00:21:46;7.00;99.90
13585;DHT22;6863;48.402;9.994;2023-03-31T00:24:13;7.00;99.90
13585;DHT22;6863;48.402;9.994;2023-03-31T00:26:39;6.90;99.90
13585;DHT22;6863;48.402;9.994;2023-03-31T00:29:07;6.90;99.90
13585;DHT22;6863;48.402;9.994;2023-03-31T00:31:33;6.90;99.90
13585;DHT22;6863;48.402;9.994;2023-03-31T00:33:59;6.80;99.90
13585;DHT22;6863;48.402;9.994;2023-03-31T00:36:25;6.80;99.90
13585;DHT22;6863;48.402;9.994;2023-03-31T00:38:59;6.80;99.90
13585;DHT22;6863;48.402;9.994;2023-03-31T00:41:26;6.80;99.90
13585;DHT22;6863;48.402;9.994;2023-03-31T00:44:09;6.70;99.90
13585;DHT22;6863;48.402;9.994;2023-03-31T00:47:06;7.00;99.90
13585;DHT22;6863;48.402;9.994;2023-03-31T00:49:44;7.10;99.90
13585;DHT22;6863;48.402;9.994;2023-03-31T00:52:14;7.00;99.90
13585;DHT22;6863;48.402;9.994;2023-03-31T00:54:45;7.00;99.90
13585;DHT22;6863;48.402;9.994;2023-03-31T00:57:11;7.10;99.90
13585;DHT22;6863;48.402;9.994;2023-03-31T01:00:06;7.10;99.90
13585;DHT22;6863;48.402;9.994;2023-03-31T01:02:45;7.10;99.90
13585;DHT22;6863;48.402;9.994;2023-03-31T01:05:22;7.10;99.90
13585;DHT22;6863;48.402;9.994;2023-03-31T01:07:50;7.10;99.90
13585;DHT22;6863;48.402;9.994;2023-03-31T01:10:17;7.20;99.90
13585;DHT22;6863;48.402;9.994;2023-03-31T01:12:49;7.20;99.90
13585;DHT22;6863;48.402;9.994;2023-03-31T01:15:15;7.30;99.90
13585;DHT22;6863;48.402;9.994;2023-03-31T01:17:42;7.30;99.90
13585;DHT22;6863;48.402;9.994;2023-03-31T01:23:06;7.40;99.90
13585;DHT22;6863;48.402;9.994;2023-03-31T01:26:11;7.40;99.90
13585;DHT22;6863;48.402;9.994;2023-03-31T01:29:07;7.40;99.90
13585;DHT22;6863;48.402;9.994;2023-03-31T01:54:46;7.80;99.90
13585;DHT22;6863;48.402;9.994;2023-03-31T01:57:23;7.90;99.90
13585;DHT22;6863;48.402;9.994;2023-03-31T02:03:24;8.00;99.90
13585;DHT22;6863;48.402;9.994;2023-03-31T02:05:55;8.00;99.90
13585;DHT22;6863;48.402;9.994;2023-03-31T02:08:35;8.10;99.90
13585;DHT22;6863;48.402;9.994;2023-03-31T02:11:02;8.10;99.90
13585;DHT22;6863;48.402;9.994;2023-03-31T02:13:28;8.10;99.90
13585;DHT22;6863;48.402;9.994;2023-03-31T02:15:59;8.10;99.90
13585;DHT22;6863;48.402;9.994;2023-03-31T02:18:29;8.10;99.90
13585;DHT22;6863;48.402;9.994;2023-03-31T02:20:58;8.10;99.90
13585;DHT22;6863;48.402;9.994;2023-03-31T02:23:27;8.10;99.90
13585;DHT22;6863;48.402;9.994;2023-03-31T02:26:15;8.10;99.90
13585;DHT22;6863;48.402;9.994;2023-03-31T02:28:43;8.10;99.90
13585;DHT22;6863;48.402;9.994;2023-03-31T02:31:28;8.10;99.90
13585;DHT22;6863;48.402;9.994;2023-03-31T02:33:59;8.20;99.90
13585;DHT22;6863;48.402;9.994;2023-03-31T02:36:25;8.20;99.90
13585;DHT22;6863;48.402;9.994;2023-03-31T02:38:55;8.20;99.90
13585;DHT22;6863;48.402;9.994;2023-03-31T02:41:22;8.20;99.90
13585;DHT22;6863;48.402;9.994;2023-03-31T02:43:48;8.30;99.90
13585;DHT22;6863;48.402;9.994;2023-03-31T02:46:13;8.30;99.90
13585;DHT22;6863;48.402;9.994;2023-03-31T02:48:46;8.30;99.90
13585;DHT22;6863;48.402;9.994;2023-03-31T02:51:50;8.30;99.90
13585;DHT22;6863;48.402;9.994;2023-03-31T02:55:28;8.30;99.90
13585;DHT22;6863;48.402;9.994;2023-03-31T03:01:06;8.30;99.90
13585;DHT22;6863;48.402;9.994;2023-03-31T03:07:16;8.20;99.90
13585;DHT22;6863;48.402;9.994;2023-03-31T03:09:22;8.20;99.90
13585;DHT22;6863;48.402;9.994;2023-03-31T03:14:51;8.20;99.90
13585;DHT22;6863;48.402;9.994;2023-03-31T03:17:22;8.20;99.90
13585;DHT22;6863;48.402;9.994;2023-03-31T03:19:56;8.20;99.90
13585;DHT22;6863;48.402;9.994;2023-03-31T03:22:23;8.10;99.90
13585;DHT22;6863;48.402;9.994;2023-03-31T03:24:49;8.10;99.90
13585;DHT22;6863;48.402;9.994;2023-03-31T03:27:15;8.10;99.90
13585;DHT22;6863;48.402;9.994;2023-03-31T03:29:41;8.00;99.90
13585;DHT22;6863;48.402;9.994;2023-03-31T03:32:08;8.00;99.90
13585;DHT22;6863;48.402;9.994;2023-03-31T03:34:34;7.90;99.90
13585;DHT22;6863;48.402;9.994;2023-03-31T03:37:00;8.00;99.90
13585;DHT22;6863;48.402;9.994;2023-03-31T03:39:25;8.00;99.90
13585;DHT22;6863;48.402;9.994;2023-03-31T03:41:51;8.00;99.90
13585;DHT22;6863;48.402;9.994;2023-03-31T03:44:17;8.00;99.90
13585;DHT22;6863;48.402;9.994;2023-03-31T03:46:42;8.00;99.90
13585;DHT22;6863;48.402;9.994;2023-03-31T03:49:08;8.00;99.90
13585;DHT22;6863;48.402;9.994;2023-03-31T03:51:33;8.00;99.90
13585;DHT22;6863;48.402;9.994;2023-03-31T03:53:59;8.00;99.90
13585;DHT22;6863;48.402;9.994;2023-03-31T03:56:24;7.90;99.90
13585;DHT22;6863;48.402;9.994;2023-03-31T03:58:50;7.90;99.90
13585;DHT22;6863;48.402;9.994;2023-03-31T04:01:16;7.80;99.90
13585;DHT22;6863;48.402;9.994;2023-03-31T04:03:42;7.80;99.90
13585;DHT22;6863;48.402;9.994;2023-03-31T04:06:08;7.70;99.90
13585;DHT22;6863;48.402;9.994;2023-03-31T04:08:34;7.70;99.90
13585;DHT22;6863;48.402;9.994;2023-03-31T04:10:59;7.70;99.90
13585;DHT22;6863;48.402;9.994;2023-03-31T04:13:25;7.70;99.90
13585;DHT22;6863;48.402;9.994;2023-03-31T04:15:51;7.70;99.90
13585;DHT22;6863;48.402;9.994;2023-03-31T04:18:17;7.70;99.90
13585;DHT22;6863;48.402;9.994;2023-03-31T04:20:50;7.70;99.90
13585;DHT22;6863;48.402;9.994;2023-03-31T04:23:32;7.70;99.90
13585;DHT22;6863;48.402;9.994;2023-03-31T04:25:58;7.60;99.90
13585;DHT22;6863;48.402;9.994;2023-03-31T04:28:24;7.60;99.90
13585;DHT22;6863;48.402;9.994;2023-03-31T04:30:54;7.60;99.90
13585;DHT22;6863;48.402;9.994;2023-03-31T04:33:23;7.50;99.90
13585;DHT22;6863;48.402;9.994;2023-03-31T04:35:48;7.40;99.90
13585;DHT22;6863;48.402;9.994;2023-03-31T04:38:18;7.30;99.90
13585;DHT22;6863;48.402;9.994;2023-03-31T04:40:46;7.30;99.90
13585;DHT22;6863;48.402;9.994;2023-03-31T04:43:12;7.30;99.90
13585;DHT22;6863;48.402;9.994;2023-03-31T04:45:38;7.20;99.90
13585;DHT22;6863;48.402;9.994;2023-03-31T04:48:04;7.20;99.90
13585;DHT22;6863;48.402;9.994;2023-03-31T04:50:30;7.30;99.90
13585;DHT22;6863;48.402;9.994;2023-03-31T04:52:57;7.40;99.90
13585;DHT22;6863;48.402;9.994;2023-03-31T04:55:22;7.40;99.90
13585;DHT22;6863;48.402;9.994;2023-03-31T04:57:48;7.50;99.90
13585;DHT22;6863;48.402;9.994;2023-03-31T05:00:17;7.50;99.90
13585;DHT22;6863;48.402;9.994;2023-03-31T05:02:43;7.50;99.90
13585;DHT22;6863;48.402;9.994;2023-03-31T05:05:09;7.50;99.90
13585;DHT22;6863;48.402;9.994;2023-03-31T05:07:35;7.50;99.90
13585;DHT22;6863;48.402;9.994;2023-03-31T05:10:01;7.50;99.90
13585;DHT22;6863;48.402;9.994;2023-03-31T05:12:26;7.50;99.90
13585;DHT22;6863;48.402;9.994;2023-03-31T05:14:52;7.60;99.90
13585;DHT22;6863;48.402;9.994;2023-03-31T05:17:18;7.70;99.90
13585;DHT22;6863;48.402;9.994;2023-03-31T05:19:43;7.70;99.90
13585;DHT22;6863;48.402;9.994;2023-03-31T05:22:09;7.70;99.90
13585;DHT22;6863;48.402;9.994;2023-03-31T05:24:35;7.80;99.90
13585;DHT22;6863;48.402;9.994;2023-03-31T05:27:01;7.80;99.90
13585;DHT22;6863;48.402;9.994;2023-03-31T05:29:26;7.90;99.90
13585;DHT22;6863;48.402;9.994;2023-03-31T05:31:52;7.90;99.90
13585;DHT22;6863;48.402;9.994;2023-03-31T05:34:18;8.00;99.90
13585;DHT22;6863;48.402;9.994;2023-03-31T05:36:45;8.10;99.90
13585;DHT22;6863;48.402;9.994;2023-03-31T05:39:12;8.20;99.90
13585;DHT22;6863;48.402;9.994;2023-03-31T05:41:38;8.30;99.90
13585;DHT22;6863;48.402;9.994;2023-03-31T05:44:04;8.30;99.90
13585;DHT22;6863;48.402;9.994;2023-03-31T05:46:29;8.40;99.90
13585;DHT22;6863;48.402;9.994;2023-03-31T05:48:55;8.40;99.90
13585;DHT22;6863;48.402;9.994;2023-03-31T05:51:21;8.40;99.90
13585;DHT22;6863;48.402;9.994;2023-03-31T05:53:47;8.40;99.90
13585;DHT22;6863;48.402;9.994;2023-03-31T05:56:13;8.40;99.90
13585;DHT22;6863;48.402;9.994;2023-03-31T05:58:38;8.40;99.90
13585;DHT22;6863;48.402;9.994;2023-03-31T06:01:12;8.50;99.90
13585;DHT22;6863;48.402;9.994;2023-03-31T06:03:40;8.50;99.90
13585;DHT22;6863;48.402;9.994;2023-03-31T06:06:07;8.50;99.90
13585;DHT22;6863;48.402;9.994;2023-03-31T06:08:35;8.50;99.90
13585;DHT22;6863;48.402;9.994;2023-03-31T06:11:04;8.40;99.90
13585;DHT22;6863;48.402;9.994;2023-03-31T06:13:30;8.40;99.90
13585;DHT22;6863;48.402;9.994;2023-03-31T06:15:58;8.40;99.90
13585;DHT22;6863;48.402;9.994;2023-03-31T06:18:24;8.40;99.90
13585;DHT22;6863;48.402;9.994;2023-03-31T06:20:51;8.40;99.90
13585;DHT22;6863;48.402;9.994;2023-03-31T06:23:16;8.30;99.90
13585;DHT22;6863;48.402;9.994;2023-03-31T06:25:42;8.40;99.90
13585;DHT22;6863;48.402;9.994;2023-03-31T06:28:08;8.40;99.90
13585;DHT22;6863;48.402;9.994;2023-03-31T06:30:33;8.40;99.90
13585;DHT22;6863;48.402;9.994;2023-03-31T06:33:00;8.40;99.90
13585;DHT22;6863;48.402;9.994;2023-03-31T06:35:25;8.50;99.90
13585;DHT22;6863;48.402;9.994;2023-03-31T06:37:51;8.50;99.90
13585;DHT22;6863;48.402;9.994;2023-03-31T06:40:17;8.50;99.90
13585;DHT22;6863;48.402;9.994;2023-03-31T06:42:42;8.60;99.90
13585;DHT22;6863;48.402;9.994;2023-03-31T06:45:08;8.50;99.90
13585;DHT22;6863;48.402;9.994;2023-03-31T06:47:34;8.50;99.90
13585;DHT22;6863;48.402;9.994;2023-03-31T06:50:03;8.60;99.90
13585;DHT22;6863;48.402;9.994;2023-03-31T06:52:30;8.50;99.90
13585;DHT22;6863;48.402;9.994;2023-03-31T06:54:56;8.60;99.90
13585;DHT22;6863;48.402;9.994;2023-03-31T06:57:22;8.70;99.90
13585;DHT22;6863;48.402;9.994;2023-03-31T06:59:48;8.80;99.90
13585;DHT22;6863;48.402;9.994;2023-03-31T07:02:13;9.00;99.90
13585;DHT22;6863;48.402;9.994;2023-03-31T07:04:42;9.00;99.90
13585;DHT22;6863;48.402;9.994;2023-03-31T07:07:07;9.20;99.90
13585;DHT22;6863;48.402;9.994;2023-03-31T07:09:33;9.20;99.90
13585;DHT22;6863;48.402;9.994;2023-03-31T07:11:59;9.20;99.90
13585;DHT22;6863;48.402;9.994;2023-03-31T07:14:25;9.30;99.90
13585;DHT22;6863;48.402;9.994;2023-03-31T07:16:51;9.30;99.90
13585;DHT22;6863;48.402;9.994;2023-03-31T07:19:17;9.30;99.90
13585;DHT22;6863;48.402;9.994;2023-03-31T07:21:43;9.30;99.90
13585;DHT22;6863;48.402;9.994;2023-03-31T07:24:10;9.30;99.90
13585;DHT22;6863;48.402;9.994;2023-03-31T07:26:35;9.20;99.90
13585;DHT22;6863;48.402;9.994;2023-03-31T07:29:01;9.30;99.90
13585;DHT22;6863;48.402;9.994;2023-03-31T07:31:26;9.70;99.90
13585;DHT22;6863;48.402;9.994;2023-03-31T07:33:52;10.10;99.90
13585;DHT22;6863;48.402;9.994;2023-03-31T07:36:17;10.30;99.90
13585;DHT22;6863;48.402;9.994;2023-03-31T07:38:45;10.20;99.90
13585;DHT22;6863;48.402;9.994;2023-03-31T07:41:14;10.00;99.90
13585;DHT22;6863;48.402;9.994;2023-03-31T07:43:40;9.90;99.90
13585;DHT22;6863;48.402;9.994;2023-03-31T07:46:05;9.70;99.90
13585;DHT22;6863;48.402;9.994;2023-03-31T07:48:33;9.60;99.90
13585;DHT22;6863;48.402;9.994;2023-03-31T07:50:58;9.50;99.90
13585;DHT22;6863;48.402;9.994;2023-03-31T07:53:24;9.40;99.90
13585;DHT22;6863;48.402;9.994;2023-03-31T07:55:50;9.40;99.90
13585;DHT22;6863;48.402;9.994;2023-03-31T07:58:15;9.30;99.90
13585;DHT22;6863;48.402;9.994;2023-03-31T08:00:41;9.30;99.90
13585;DHT22;6863;48.402;9.994;2023-03-31T08:03:07;9.50;99.90
13585;DHT22;6863;48.402;9.994;2023-03-31T08:05:32;9.60;99.90
13585;DHT22;6863;48.402;9.994;2023-03-31T08:07:58;9.70;99.90
13585;DHT22;6863;48.402;9.994;2023-03-31T08:10:26;9.80;99.90
13585;DHT22;6863;48.402;9.994;2023-03-31T08:12:52;10.20;99.90
13585;DHT22;6863;48.402;9.994;2023-03-31T08:15:20;10.40;99.90
13585;DHT22;6863;48.402;9.994;2023-03-31T08:17:49;10.60;99.90
13585;DHT22;6863;48.402;9.994;2023-03-31T08:20:15;10.90;99.90
13585;DHT22;6863;48.402;9.994;2023-03-31T08:22:41;11.20;99.90
13585;DHT22;6863;48.402;9.994;2023-03-31T08:25:07;11.40;99.90
13585;DHT22;6863;48.402;9.994;2023-03-31T08:27:38;11.60;99.90
13585;DHT22;6863;48.402;9.994;2023-03-31T08:30:05;11.60;99.90
13585;DHT22;6863;48.402;9.994;2023-03-31T08:32:34;11.90;99.90
13585;DHT22;6863;48.402;9.994;2023-03-31T08:35:00;12.40;99.90
13585;DHT22;6863;48.402;9.994;2023-03-31T08:37:26;13.40;99.20
13585;DHT22;6863;48.402;9.994;2023-03-31T08:39:56;13.80;97.70
13585;DHT22;6863;48.402;9.994;2023-03-31T08:42:35;13.90;97.70
13585;DHT22;6863;48.402;9.994;2023-03-31T08:45:21;14.20;97.30
13585;DHT22;6863;48.402;9.994;2023-03-31T08:47:52;15.10;95.30
13585;DHT22;6863;48.402;9.994;2023-03-31T08:50:26;15.30;94.20
13585;DHT22;6863;48.402;9.994;2023-03-31T08:53:05;15.40;94.50
13585;DHT22;6863;48.402;9.994;2023-03-31T08:55:57;16.40;93.70
13585;DHT22;6863;48.402;9.994;2023-03-31T08:58:39;16.90;91.00
13585;DHT22;6863;48.402;9.994;2023-03-31T09:04:04;17.40;89.50
13585;DHT22;6863;48.402;9.994;2023-03-31T09:09:01;17.70;83.20
13585;DHT22;6863;48.402;9.994;2023-03-31T09:11:47;17.20;82.80
13585;DHT22;6863;48.402;9.994;2023-03-31T09:14:28;16.30;83.20
13585;DHT22;6863;48.402;9.994;2023-03-31T09:17:12;15.90;86.40
13585;DHT22;6863;48.402;9.994;2023-03-31T09:19:57;15.60;86.10
13585;DHT22;6863;48.402;9.994;2023-03-31T09:22:33;15.60;87.30
13585;DHT22;6863;48.402;9.994;2023-03-31T09:25:13;17.50;82.50
13585;DHT22;6863;48.402;9.994;2023-03-31T09:27:42;18.90;78.50
13585;DHT22;6863;48.402;9.994;2023-03-31T09:30:21;20.70;71.40
13585;DHT22;6863;48.402;9.994;2023-03-31T09:32:52;20.90;66.70
13585;DHT22;6863;48.402;9.994;2023-03-31T09:35:20;20.10;65.50
13585;DHT22;6863;48.402;9.994;2023-03-31T09:37:47;20.70;65.30
13585;DHT22;6863;48.402;9.994;2023-03-31T09:40:16;20.70;64.00
13585;DHT22;6863;48.402;9.994;2023-03-31T09:42:42;21.00;61.50
13585;DHT22;6863;48.402;9.994;2023-03-31T09:45:16;21.40;60.70
13585;DHT22;6863;48.402;9.994;2023-03-31T09:47:45;20.60;61.40
13585;DHT22;6863;48.402;9.994;2023-03-31T09:50:12;20.10;60.70
13585;DHT22;6863;48.402;9.994;2023-03-31T09:52:51;20.10;62.00
13585;DHT22;6863;48.402;9.994;2023-03-31T09:55:25;19.10;63.70
13585;DHT22;6863;48.402;9.994;2023-03-31T09:57:53;18.50;61.50
13585;DHT22;6863;48.402;9.994;2023-03-31T10:00:21;19.80;61.00
13585;DHT22;6863;48.402;9.994;2023-03-31T10:02:53;21.20;57.50
13585;DHT22;6863;48.402;9.994;2023-03-31T10:05:27;21.10;54.70
13585;DHT22;6863;48.402;9.994;2023-03-31T10:08:30;19.30;55.10
13585;DHT22;6863;48.402;9.994;2023-03-31T10:16:49;17.40;58.30
13585;DHT22;6863;48.402;9.994;2023-03-31T10:22:00;18.40;56.60
13585;DHT22;6863;48.402;9.994;2023-03-31T10:24:37;19.90;53.70
13585;DHT22;6863;48.402;9.994;2023-03-31T10:27:05;21.40;51.80
13585;DHT22;6863;48.402;9.994;2023-03-31T10:29:33;22.50;49.10
13585;DHT22;6863;48.402;9.994;2023-03-31T10:32:31;20.90;48.90
13585;DHT22;6863;48.402;9.994;2023-03-31T10:35:05;20.20;49.50
13585;DHT22;6863;48.402;9.994;2023-03-31T10:37:34;19.10;50.40
13585;DHT22;6863;48.402;9.994;2023-03-31T10:40:16;18.80;51.10
13585;DHT22;6863;48.402;9.994;2023-03-31T10:42:57;18.70;52.00
13585;DHT22;6863;48.402;9.994;2023-03-31T10:45:36;18.70;52.50
13585;DHT22;6863;48.402;9.994;2023-03-31T10:48:03;18.20;51.70
13585;DHT22;6863;48.402;9.994;2023-03-31T10:50:31;18.80;52.50
13585;DHT22;6863;48.402;9.994;2023-03-31T10:55:34;18.70;50.40
13585;DHT22;6863;48.402;9.994;2023-03-31T10:58:09;18.00;51.00
13585;DHT22;6863;48.402;9.994;2023-03-31T11:04:04;20.40;48.00
13585;DHT22;6863;48.402;9.994;2023-03-31T11:09:51;23.30;42.50
13585;DHT22;6863;48.402;9.994;2023-03-31T11:15:50;23.10;41.30
13585;DHT22;6863;48.402;9.994;2023-03-31T11:24:22;22.20;40.20
13585;DHT22;6863;48.402;9.994;2023-03-31T11:33:11;24.00;36.20
13585;DHT22;6863;48.402;9.994;2023-03-31T11:38:41;24.00;35.30
13585;DHT22;6863;48.402;9.994;2023-03-31T11:41:15;24.50;34.50
13585;DHT22;6863;48.402;9.994;2023-03-31T11:43:48;24.40;34.70
13585;DHT22;6863;48.402;9.994;2023-03-31T11:48:57;23.90;34.40
13585;DHT22;6863;48.402;9.994;2023-03-31T11:52:07;24.30;34.20
13585;DHT22;6863;48.402;9.994;2023-03-31T12:00:15;22.70;35.80
13585;DHT22;6863;48.402;9.994;2023-03-31T12:03:03;22.40;36.60
13585;DHT22;6863;48.402;9.994;2023-03-31T12:05:33;23.50;34.30
13585;DHT22;6863;48.402;9.994;2023-03-31T12:08:15;21.90;35.70
13585;DHT22;6863;48.402;9.994;2023-03-31T12:10:47;20.00;43.10
13585;DHT22;6863;48.402;9.994;2023-03-31T12:16:28;20.80;47.20
13585;DHT22;6863;48.402;9.994;2023-03-31T12:21:43;21.30;44.30
13585;DHT22;6863;48.402;9.994;2023-03-31T12:24:12;21.80;45.10
13585;DHT22;6863;48.402;9.994;2023-03-31T12:26:53;23.90;42.90
13585;DHT22;6863;48.402;9.994;2023-03-31T12:29:28;25.10;41.30
13585;DHT22;6863;48.402;9.994;2023-03-31T12:31:58;26.60;39.20
13585;DHT22;6863;48.402;9.994;2023-03-31T12:34:27;26.70;37.20
13585;DHT22;6863;48.402;9.994;2023-03-31T12:43:07;27.70;35.60
13585;DHT22;6863;48.402;9.994;2023-03-31T12:46:08;27.50;35.00
13585;DHT22;6863;48.402;9.994;2023-03-31T12:57:03;26.70;35.60
13585;DHT22;6863;48.402;9.994;2023-03-31T12:59:34;26.30;35.00
13585;DHT22;6863;48.402;9.994;2023-03-31T13:04:42;24.60;36.50
13585;DHT22;6863;48.402;9.994;2023-03-31T13:10:23;26.00;35.20
13585;DHT22;6863;48.402;9.994;2023-03-31T13:13:14;24.60;35.00
13585;DHT22;6863;48.402;9.994;2023-03-31T13:15:53;24.00;36.50
13585;DHT22;6863;48.402;9.994;2023-03-31T13:18:20;24.30;35.70
13585;DHT22;6863;48.402;9.994;2023-03-31T13:21:00;23.60;36.90
13585;DHT22;6863;48.402;9.994;2023-03-31T13:23:33;23.90;37.30
13585;DHT22;6863;48.402;9.994;2023-03-31T13:25:59;21.00;39.90
13585;DHT22;6863;48.402;9.994;2023-03-31T13:28:39;19.70;42.60
13585;DHT22;6863;48.402;9.994;2023-03-31T13:31:11;19.50;44.00
13585;DHT22;6863;48.402;9.994;2023-03-31T13:33:55;18.90;44.50
13585;DHT22;6863;48.402;9.994;2023-03-31T13:44:24;17.40;48.00
13585;DHT22;6863;48.402;9.994;2023-03-31T13:53:25;15.10;53.80
13585;DHT22;6863;48.402;9.994;2023-03-31T13:56:14;14.60;54.00
13585;DHT22;6863;48.402;9.994;2023-03-31T14:02:17;14.40;55.90
13585;DHT22;6863;48.402;9.994;2023-03-31T14:04:54;15.40;55.10
13585;DHT22;6863;48.402;9.994;2023-03-31T14:07:49;15.80;53.60
13585;DHT22;6863;48.402;9.994;2023-03-31T14:10:33;16.10;52.40
13585;DHT22;6863;48.402;9.994;2023-03-31T14:13:07;16.80;51.10
13585;DHT22;6863;48.402;9.994;2023-03-31T14:15:36;17.20;50.50
13585;DHT22;6863;48.402;9.994;2023-03-31T14:18:04;18.50;49.00
13585;DHT22;6863;48.402;9.994;2023-03-31T14:26:30;18.50;46.10
13585;DHT22;6863;48.402;9.994;2023-03-31T14:34:48;15.60;50.00
13585;DHT22;6863;48.402;9.994;2023-03-31T14:37:18;15.20;51.30
13585;DHT22;6863;48.402;9.994;2023-03-31T14:39:51;14.60;52.00
13585;DHT22;6863;48.402;9.994;2023-03-31T14:42:28;14.30;53.30
13585;DHT22;6863;48.402;9.994;2023-03-31T14:45:02;14.20;55.00
13585;DHT22;6863;48.402;9.994;2023-03-31T14:47:28;13.60;57.50
13585;DHT22;6863;48.402;9.994;2023-03-31T14:50:02;13.30;60.60
13585;DHT22;6863;48.402;9.994;2023-03-31T14:52:31;12.90;66.10
13585;DHT22;6863;48.402;9.994;2023-03-31T14:54:58;12.50;72.90
13585;DHT22;6863;48.402;9.994;2023-03-31T14:57:31;12.70;77.30
13585;DHT22;6863;48.402;9.994;2023-03-31T14:59:58;13.00;78.20
13585;DHT22;6863;48.402;9.994;2023-03-31T15:02:45;13.80;75.20
13585;DHT22;6863;48.402;9.994;2023-03-31T15:05:34;14.40;72.90
13585;DHT22;6863;48.402;9.994;2023-03-31T15:08:11;14.00;73.20
13585;DHT22;6863;48.402;9.994;2023-03-31T15:10:43;13.60;76.50
13585;DHT22;6863;48.402;9.994;2023-03-31T15:13:18;13.40;78.50
13585;DHT22;6863;48.402;9.994;2023-03-31T15:15:44;13.20;78.40
13585;DHT22;6863;48.402;9.994;2023-03-31T15:18:14;12.80;79.30
13585;DHT22;6863;48.402;9.994;2023-03-31T15:20:41;12.70;80.30
13585;DHT22;6863;48.402;9.994;2023-03-31T15:23:22;12.50;81.30
13585;DHT22;6863;48.402;9.994;2023-03-31T15:26:03;12.30;81.30
13585;DHT22;6863;48.402;9.994;2023-03-31T15:28:45;12.10;84.40
13585;DHT22;6863;48.402;9.994;2023-03-31T15:31:14;11.90;85.80
13585;DHT22;6863;48.402;9.994;2023-03-31T15:33:40;11.60;89.30
13585;DHT22;6863;48.402;9.994;2023-03-31T15:36:07;11.20;91.40
13585;DHT22;6863;48.402;9.994;2023-03-31T15:38:33;10.70;92.80
13585;DHT22;6863;48.402;9.994;2023-03-31T15:40:59;10.60;94.20
13585;DHT22;6863;48.402;9.994;2023-03-31T15:43:44;10.60;94.90
13585;DHT22;6863;48.402;9.994;2023-03-31T15:46:24;10.60;95.70
13585;DHT22;6863;48.402;9.994;2023-03-31T15:49:27;10.60;96.00
13585;DHT22;6863;48.402;9.994;2023-03-31T15:51:54;10.70;96.70
13585;DHT22;6863;48.402;9.994;2023-03-31T15:54:40;10.70;96.60
13585;DHT22;6863;48.402;9.994;2023-03-31T15:57:07;10.80;96.70
13585;DHT22;6863;48.402;9.994;2023-03-31T16:02:14;10.70;97.00
13585;DHT22;6863;48.402;9.994;2023-03-31T16:04:40;10.60;96.90
13585;DHT22;6863;48.402;9.994;2023-03-31T16:07:18;10.70;96.60
13585;DHT22;6863;48.402;9.994;2023-03-31T16:09:52;10.90;97.10
13585;DHT22;6863;48.402;9.994;2023-03-31T16:12:22;11.00;96.10
13585;DHT22;6863;48.402;9.994;2023-03-31T16:20:21;11.30;94.60
13585;DHT22;6863;48.402;9.994;2023-03-31T16:22:51;11.30;94.10
13585;DHT22;6863;48.402;9.994;2023-03-31T16:25:21;11.30;93.80
13585;DHT22;6863;48.402;9.994;2023-03-31T16:27:50;11.10;93.90
13585;DHT22;6863;48.402;9.994;2023-03-31T16:30:20;10.90;94.20
13585;DHT22;6863;48.402;9.994;2023-03-31T16:33:04;10.80;94.30
13585;DHT22;6863;48.402;9.994;2023-03-31T16:35:38;10.70;94.30
13585;DHT22;6863;48.402;9.994;2023-03-31T16:38:06;10.60;95.00
13585;DHT22;6863;48.402;9.994;2023-03-31T16:40:37;10.50;95.00
13585;DHT22;6863;48.402;9.994;2023-03-31T16:43:07;10.50;95.00
13585;DHT22;6863;48.402;9.994;2023-03-31T16:45:32;10.50;94.80
13585;DHT22;6863;48.402;9.994;2023-03-31T16:47:58;10.50;94.70
13585;DHT22;6863;48.402;9.994;2023-03-31T16:50:23;10.40;94.50
13585;DHT22;6863;48.402;9.994;2023-03-31T16:52:49;10.40;93.90
13585;DHT22;6863;48.402;9.994;2023-03-31T16:55:16;10.40;94.30
13585;DHT22;6863;48.402;9.994;2023-03-31T16:57:41;10.40;95.20
13585;DHT22;6863;48.402;9.994;2023-03-31T17:00:07;10.30;96.10
13585;DHT22;6863;48.402;9.994;2023-03-31T17:02:33;10.20;96.70
13585;DHT22;6863;48.402;9.994;2023-03-31T17:04:59;10.20;97.20
13585;DHT22;6863;48.402;9.994;2023-03-31T17:07:24;10.10;97.30
13585;DHT22;6863;48.402;9.994;2023-03-31T17:09:50;10.00;97.90
13585;DHT22;6863;48.402;9.994;2023-03-31T17:12:16;10.00;97.90
13585;DHT22;6863;48.402;9.994;2023-03-31T17:14:42;9.80;98.70
13585;DHT22;6863;48.402;9.994;2023-03-31T17:17:07;9.80;99.10
13585;DHT22;6863;48.402;9.994;2023-03-31T17:19:33;9.70;99.30
13585;DHT22;6863;48.402;9.994;2023-03-31T17:21:58;9.70;99.40
13585;DHT22;6863;48.402;9.994;2023-03-31T17:24:26;9.70;99.40
13585;DHT22;6863;48.402;9.994;2023-03-31T17:26:52;9.70;99.50
13585;DHT22;6863;48.402;9.994;2023-03-31T17:29:18;9.60;99.70
13585;DHT22;6863;48.402;9.994;2023-03-31T17:31:43;9.50;99.90
13585;DHT22;6863;48.402;9.994;2023-03-31T17:34:09;9.50;99.90
13585;DHT22;6863;48.402;9.994;2023-03-31T17:36:35;9.50;99.90
13585;DHT22;6863;48.402;9.994;2023-03-31T17:39:02;9.50;99.90
13585;DHT22;6863;48.402;9.994;2023-03-31T17:41:29;9.50;99.90
13585;DHT22;6863;48.402;9.994;2023-03-31T17:43:56;9.40;99.90
13585;DHT22;6863;48.402;9.994;2023-03-31T17:46:22;9.50;99.90
13585;DHT22;6863;48.402;9.994;2023-03-31T17:48:49;9.40;99.90
13585;DHT22;6863;48.402;9.994;2023-03-31T17:51:17;9.40;99.90
13585;DHT22;6863;48.402;9.994;2023-03-31T17:53:44;9.40;99.90
13585;DHT22;6863;48.402;9.994;2023-03-31T17:56:11;9.40;99.90
13585;DHT22;6863;48.402;9.994;2023-03-31T17:58:37;9.30;99.90
13585;DHT22;6863;48.402;9.994;2023-03-31T18:01:04;9.30;99.90
13585;DHT22;6863;48.402;9.994;2023-03-31T18:03:30;9.30;99.90
13585;DHT22;6863;48.402;9.994;2023-03-31T18:05:55;9.20;99.90
13585;DHT22;6863;48.402;9.994;2023-03-31T18:08:21;9.20;99.90
13585;DHT22;6863;48.402;9.994;2023-03-31T18:10:47;9.20;99.90
13585;DHT22;6863;48.402;9.994;2023-03-31T18:13:13;9.10;99.90
13585;DHT22;6863;48.402;9.994;2023-03-31T18:15:45;9.10;99.90
13585;DHT22;6863;48.402;9.994;2023-03-31T18:18:13;9.20;99.90
13585;DHT22;6863;48.402;9.994;2023-03-31T18:20:39;9.10;99.90
13585;DHT22;6863;48.402;9.994;2023-03-31T18:23:04;9.10;99.90
13585;DHT22;6863;48.402;9.994;2023-03-31T18:25:30;9.10;99.90
13585;DHT22;6863;48.402;9.994;2023-03-31T18:27:55;9.00;99.90
13585;DHT22;6863;48.402;9.994;2023-03-31T18:30:21;9.00;99.90
13585;DHT22;6863;48.402;9.994;2023-03-31T18:32:47;9.00;99.90
13585;DHT22;6863;48.402;9.994;2023-03-31T18:35:12;8.90;99.90
13585;DHT22;6863;48.402;9.994;2023-03-31T18:37:38;9.00;99.90
13585;DHT22;6863;48.402;9.994;2023-03-31T18:40:04;8.90;99.90
13585;DHT22;6863;48.402;9.994;2023-03-31T18:42:29;8.90;99.90
13585;DHT22;6863;48.402;9.994;2023-03-31T18:44:56;8.90;99.90
13585;DHT22;6863;48.402;9.994;2023-03-31T18:47:21;8.80;99.90
13585;DHT22;6863;48.402;9.994;2023-03-31T18:49:47;8.80;99.90